sensor_id;sensor_type;location;lat;lon;timestamp;pressure;altitude;pressure_sealevel;temperature;humidity
51617;BME280;37697;52.588;13.394;2022-11-21T00:02:07;100028.25;;;-2.19;83.19
51617;BME280;37697;52.588;13.394;2022-11-21T00:07:07;100008.82;;;-2.18;83.31
51617;BME280;37697;52.588;13.394;2022-11-21T00:12:08;100012.45;;;-2.13;83.43
51617;BME280;37697;52.588;13.394;2022-11-21T00:17:09;100015.95;;;-2.12;83.41
51617;BME280;37697;52.588;13.394;2022-11-21T00:22:10;99995.38;;;-2.16;83.43
51617;BME280;37697;52.588;13.394;2022-11-21T00:27:10;99991.63;;;-2.15;83.82
51617;BME280;37697;52.588;13.394;2022-11-21T00:32:11;99986.81;;;-2.13;83.89
51617;BME280;37697;52.588;13.394;2022-11-21T00:37:11;99978.72;;;-2.13;83.83
51617;BME280;37697;52.588;13.394;2022-11-21T00:42:12;99975.25;;;-2.11;83.89
51617;BME280;37697;52.588;13.394;2022-11-21T00:47:13;99966.69;;;-2.07;83.84
51617;BME280;37697;52.588;13.394;2022-11-21T00:52:15;99961.05;;;-2.06;83.94
51617;BME280;37697;52.588;13.394;2022-11-21T00:57:16;99961.93;;;-2.03;84.17
51617;BME280;37697;52.588;13.394;2022-11-21T01:02:17;99957.11;;;-2.01;84.06
51617;BME280;37697;52.588;13.394;2022-11-21T01:07:18;99948.78;;;-1.99;84.04
51617;BME280;37697;52.588;13.394;2022-11-21T01:12:18;99952.33;;;-1.96;84.29
51617;BME280;37697;52.588;13.394;2022-11-21T01:17:19;99949.36;;;-1.97;84.25
51617;BME280;37697;52.588;13.394;2022-11-21T01:22:19;99948.58;;;-1.95;84.29
51617;BME280;37697;52.588;13.394;2022-11-21T01:27:20;99945.11;;;-1.93;84.38
51617;BME280;37697;52.588;13.394;2022-11-21T01:32:21;99938.77;;;-1.87;84.47
51617;BME280;37697;52.588;13.394;2022-11-21T01:37:21;99931.27;;;-1.82;84.44
51617;BME280;37697;52.588;13.394;2022-11-21T01:42:22;99934.07;;;-1.77;84.48
51617;BME280;37697;52.588;13.394;2022-11-21T01:47:23;99932.81;;;-1.72;84.51
51617;BME280;37697;52.588;13.394;2022-11-21T01:52:27;99919.11;;;-1.68;84.52
51617;BME280;37697;52.588;13.394;2022-11-21T01:57:38;99916.48;;;-1.65;84.40
51617;BME280;37697;52.588;13.394;2022-11-21T02:02:44;99919.98;;;-1.65;84.52
51617;BME280;37697;52.588;13.394;2022-11-21T02:07:47;99919.45;;;-1.64;84.66
51617;BME280;37697;52.588;13.394;2022-11-21T02:12:50;99894.92;;;-1.77;84.64
51617;BME280;37697;52.588;13.394;2022-11-21T02:17:53;99915.40;;;-1.64;84.65
51617;BME280;37697;52.588;13.394;2022-11-21T02:22:57;99915.22;;;-1.60;84.65
51617;BME280;37697;52.588;13.394;2022-11-21T02:28:14;99913.12;;;-1.56;84.80
51617;BME280;37697;52.588;13.394;2022-11-21T02:33:16;99915.83;;;-1.56;84.81
51617;BME280;37697;52.588;13.394;2022-11-21T02:38:20;99905.32;;;-1.55;84.78
51617;BME280;37697;52.588;13.394;2022-11-21T02:43:35;99905.08;;;-1.53;84.83
51617;BME280;37697;52.588;13.394;2022-11-21T02:48:39;99889.13;;;-1.55;84.86
51617;BME280;37697;52.588;13.394;2022-11-21T02:53:40;99883.27;;;-1.49;84.82
51617;BME280;37697;52.588;13.394;2022-11-21T02:58:40;99876.27;;;-1.47;84.72
51617;BME280;37697;52.588;13.394;2022-11-21T03:03:41;99877.33;;;-1.48;84.77
51617;BME280;37697;52.588;13.394;2022-11-21T03:08:42;99876.19;;;-1.53;84.71
51617;BME280;37697;52.588;13.394;2022-11-21T03:13:42;99876.19;;;-1.53;84.74
51617;BME280;37697;52.588;13.394;2022-11-21T03:18:43;99872.13;;;-1.53;84.69
51617;BME280;37697;52.588;13.394;2022-11-21T03:23:43;99867.78;;;-1.54;84.69
51617;BME280;37697;52.588;13.394;2022-11-21T03:28:44;99859.17;;;-1.53;84.60
51617;BME280;37697;52.588;13.394;2022-11-21T03:33:45;99861.55;;;-1.57;84.55
51617;BME280;37697;52.588;13.394;2022-11-21T03:38:46;99865.30;;;-1.58;84.46
51617;BME280;37697;52.588;13.394;2022-11-21T03:43:46;99871.95;;;-1.63;84.35
51617;BME280;37697;52.588;13.394;2022-11-21T03:48:50;99871.59;;;-1.69;84.21
51617;BME280;37697;52.588;13.394;2022-11-21T03:53:51;99870.72;;;-1.72;84.40
51617;BME280;37697;52.588;13.394;2022-11-21T03:58:52;99879.30;;;-1.75;84.28
51617;BME280;37697;52.588;13.394;2022-11-21T04:03:53;99878.16;;;-1.79;84.25
51617;BME280;37697;52.588;13.394;2022-11-21T04:08:54;99881.16;;;-1.78;84.46
51617;BME280;37697;52.588;13.394;2022-11-21T04:13:54;99887.30;;;-1.80;84.46
51617;BME280;37697;52.588;13.394;2022-11-21T04:18:55;99890.55;;;-1.81;84.44
51617;BME280;37697;52.588;13.394;2022-11-21T04:23:56;99890.06;;;-1.78;84.59
51617;BME280;37697;52.588;13.394;2022-11-21T04:28:56;99893.09;;;-1.74;84.54
51617;BME280;37697;52.588;13.394;2022-11-21T04:33:57;99894.21;;;-1.73;84.49
51617;BME280;37697;52.588;13.394;2022-11-21T04:38:58;99895.83;;;-1.72;84.48
51617;BME280;37697;52.588;13.394;2022-11-21T04:43:59;99893.97;;;-1.71;84.49
51617;BME280;37697;52.588;13.394;2022-11-21T04:49:00;99899.07;;;-1.72;84.53
51617;BME280;37697;52.588;13.394;2022-11-21T04:54:00;99898.17;;;-1.78;84.20
51617;BME280;37697;52.588;13.394;2022-11-21T04:59:01;99897.36;;;-1.78;84.57
51617;BME280;37697;52.588;13.394;2022-11-21T05:04:01;99897.05;;;-1.79;84.47
51617;BME280;37697;52.588;13.394;2022-11-21T05:09:02;99898.17;;;-1.78;84.58
51617;BME280;37697;52.588;13.394;2022-11-21T05:14:03;99893.58;;;-1.77;84.56
51617;BME280;37697;52.588;13.394;2022-11-21T05:19:04;99894.11;;;-1.78;84.36
51617;BME280;37697;52.588;13.394;2022-11-21T05:24:05;99898.64;;;-1.81;84.40
51617;BME280;37697;52.588;13.394;2022-11-21T05:29:06;99906.50;;;-1.79;84.64
51617;BME280;37697;52.588;13.394;2022-11-21T05:34:07;99903.80;;;-1.79;84.58
51617;BME280;37697;52.588;13.394;2022-11-21T05:39:08;99903.27;;;-1.79;84.61
51617;BME280;37697;52.588;13.394;2022-11-21T05:44:09;99914.27;;;-1.83;84.40
51617;BME280;37697;52.588;13.394;2022-11-21T05:49:10;99907.75;;;-1.84;84.51
51617;BME280;37697;52.588;13.394;2022-11-21T05:54:14;99901.04;;;-1.82;84.69
51617;BME280;37697;52.588;13.394;2022-11-21T05:59:15;99894.02;;;-1.83;84.63
51617;BME280;37697;52.588;13.394;2022-11-21T06:04:15;99890.98;;;-1.86;84.66
51617;BME280;37697;52.588;13.394;2022-11-21T06:09:16;99900.47;;;-1.84;84.69
51617;BME280;37697;52.588;13.394;2022-11-21T06:14:17;99899.69;;;-1.82;84.68
51617;BME280;37697;52.588;13.394;2022-11-21T06:19:17;99900.23;;;-1.82;84.79
51617;BME280;37697;52.588;13.394;2022-11-21T06:24:18;99908.05;;;-1.83;84.83
51617;BME280;37697;52.588;13.394;2022-11-21T06:29:19;99908.23;;;-1.87;84.49
51617;BME280;37697;52.588;13.394;2022-11-21T06:34:21;99903.38;;;-1.88;84.73
51617;BME280;37697;52.588;13.394;2022-11-21T06:39:22;99901.38;;;-1.93;84.75
51617;BME280;37697;52.588;13.394;2022-11-21T06:44:22;99911.38;;;-1.93;84.52
51617;BME280;37697;52.588;13.394;2022-11-21T06:49:23;99906.98;;;-1.97;84.67
51617;BME280;37697;52.588;13.394;2022-11-21T06:54:24;99913.39;;;-2.00;84.46
51617;BME280;37697;52.588;13.394;2022-11-21T06:59:24;99912.48;;;-2.06;84.33
51617;BME280;37697;52.588;13.394;2022-11-21T07:04:25;99930.63;;;-2.16;83.79
51617;BME280;37697;52.588;13.394;2022-11-21T07:09:26;99938.77;;;-2.27;83.92
51617;BME280;37697;52.588;13.394;2022-11-21T07:14:27;99932.77;;;-2.30;83.99
51617;BME280;37697;52.588;13.394;2022-11-21T07:19:27;99943.98;;;-2.35;83.88
51617;BME280;37697;52.588;13.394;2022-11-21T07:24:28;99949.27;;;-2.40;83.93
51617;BME280;37697;52.588;13.394;2022-11-21T07:29:29;99955.96;;;-2.43;84.12
51617;BME280;37697;52.588;13.394;2022-11-21T07:34:29;99960.12;;;-2.38;84.40
51617;BME280;37697;52.588;13.394;2022-11-21T07:39:30;99960.23;;;-2.33;84.55
51617;BME280;37697;52.588;13.394;2022-11-21T07:44:31;99960.08;;;-2.26;84.70
51617;BME280;37697;52.588;13.394;2022-11-21T07:49:31;99964.00;;;-2.19;84.92
51617;BME280;37697;52.588;13.394;2022-11-21T07:54:33;99976.48;;;-2.16;84.84
51617;BME280;37697;52.588;13.394;2022-11-21T07:59:35;99979.02;;;-2.12;84.91
51617;BME280;37697;52.588;13.394;2022-11-21T08:04:36;99980.48;;;-2.06;84.91
51617;BME280;37697;52.588;13.394;2022-11-21T08:09:37;99988.65;;;-2.01;85.15
51617;BME280;37697;52.588;13.394;2022-11-21T08:14:38;99993.23;;;-2.02;85.01
51617;BME280;37697;52.588;13.394;2022-11-21T08:19:39;99989.49;;;-2.01;85.19
51617;BME280;37697;52.588;13.394;2022-11-21T08:24:40;99995.00;;;-1.96;85.08
51617;BME280;37697;52.588;13.394;2022-11-21T08:29:40;99990.11;;;-1.96;85.13
51617;BME280;37697;52.588;13.394;2022-11-21T08:34:41;99982.35;;;-1.93;85.19
51617;BME280;37697;52.588;13.394;2022-11-21T08:39:42;99993.45;;;-1.92;84.86
51617;BME280;37697;52.588;13.394;2022-11-21T08:44:43;100002.94;;;-1.89;85.07
51617;BME280;37697;52.588;13.394;2022-11-21T08:49:43;100009.98;;;-1.88;85.03
51617;BME280;37697;52.588;13.394;2022-11-21T08:54:44;100021.91;;;-1.86;84.89
51617;BME280;37697;52.588;13.394;2022-11-21T08:59:45;100024.60;;;-1.86;85.13
51617;BME280;37697;52.588;13.394;2022-11-21T09:04:45;100027.88;;;-1.84;85.05
51617;BME280;37697;52.588;13.394;2022-11-21T09:09:46;100024.62;;;-1.98;84.26
51617;BME280;37697;52.588;13.394;2022-11-21T09:14:47;100028.39;;;-1.99;84.94
51617;BME280;37697;52.588;13.394;2022-11-21T09:20:07;100027.97;;;-2.05;84.72
51617;BME280;37697;52.588;13.394;2022-11-21T09:25:08;100029.05;;;-2.06;85.08
51617;BME280;37697;52.588;13.394;2022-11-21T09:30:10;100023.55;;;-2.12;84.90
51617;BME280;37697;52.588;13.394;2022-11-21T09:35:11;100040.93;;;-2.05;84.77
51617;BME280;37697;52.588;13.394;2022-11-21T09:40:14;100030.98;;;-2.04;84.58
51617;BME280;37697;52.588;13.394;2022-11-21T09:45:22;100041.82;;;-2.14;84.58
51617;BME280;37697;52.588;13.394;2022-11-21T09:50:36;100041.36;;;-2.11;84.76
51617;BME280;37697;52.588;13.394;2022-11-21T09:55:50;100041.59;;;-2.12;84.89
51617;BME280;37697;52.588;13.394;2022-11-21T10:00:53;100042.55;;;-2.18;84.42
51617;BME280;37697;52.588;13.394;2022-11-21T10:06:13;100049.68;;;-2.12;84.85
51617;BME280;37697;52.588;13.394;2022-11-21T10:11:23;100054.31;;;-2.10;84.71
51617;BME280;37697;52.588;13.394;2022-11-21T10:16:48;100066.06;;;-2.04;84.83
51617;BME280;37697;52.588;13.394;2022-11-21T10:22:02;100076.51;;;-2.08;84.41
51617;BME280;37697;52.588;13.394;2022-11-21T10:27:13;100080.25;;;-2.09;84.27
51617;BME280;37697;52.588;13.394;2022-11-21T10:32:21;100080.25;;;-2.09;84.27
51617;BME280;37697;52.588;13.394;2022-11-21T10:37:38;100089.16;;;-2.08;84.08
51617;BME280;37697;52.588;13.394;2022-11-21T10:42:54;100070.56;;;-2.19;84.22
51617;BME280;37697;52.588;13.394;2022-11-21T10:47:57;100107.53;;;-2.08;84.33
51617;BME280;37697;52.588;13.394;2022-11-21T10:53:16;100097.59;;;-2.05;84.18
51617;BME280;37697;52.588;13.394;2022-11-21T11:03:45;100095.86;;;-1.99;84.57
51617;BME280;37697;52.588;13.394;2022-11-21T11:08:50;100098.18;;;-1.91;84.88
51617;BME280;37697;52.588;13.394;2022-11-21T11:13:55;100088.34;;;-1.97;84.10
51617;BME280;37697;52.588;13.394;2022-11-21T11:19:19;100092.51;;;-1.92;84.40
51617;BME280;37697;52.588;13.394;2022-11-21T11:24:26;100092.51;;;-1.92;84.15
51617;BME280;37697;52.588;13.394;2022-11-21T11:29:30;100088.73;;;-1.91;84.05
51617;BME280;37697;52.588;13.394;2022-11-21T11:39:49;100095.67;;;-1.83;84.31
51617;BME280;37697;52.588;13.394;2022-11-21T11:45:15;100099.18;;;-1.83;84.16
51617;BME280;37697;52.588;13.394;2022-11-21T11:50:33;100100.92;;;-1.77;84.61
51617;BME280;37697;52.588;13.394;2022-11-21T11:56:04;100099.28;;;-1.66;84.82
51617;BME280;37697;52.588;13.394;2022-11-21T12:01:31;100099.86;;;-1.64;84.19
51617;BME280;37697;52.588;13.394;2022-11-21T12:06:39;100092.27;;;-1.64;84.10
51617;BME280;37697;52.588;13.394;2022-11-21T12:12:01;100075.10;;;-1.73;84.33
51617;BME280;37697;52.588;13.394;2022-11-21T12:17:09;100100.55;;;-1.57;84.29
51617;BME280;37697;52.588;13.394;2022-11-21T12:22:10;100093.30;;;-1.54;84.26
51617;BME280;37697;52.588;13.394;2022-11-21T12:27:30;100098.69;;;-1.54;84.03
51617;BME280;37697;52.588;13.394;2022-11-21T12:37:52;100086.05;;;-1.65;83.63
51617;BME280;37697;52.588;13.394;2022-11-21T12:48:47;100077.72;;;-1.63;83.53
51617;BME280;37697;52.588;13.394;2022-11-21T12:59:57;100081.47;;;-1.64;83.88
51617;BME280;37697;52.588;13.394;2022-11-21T13:04:59;100080.42;;;-1.63;83.87
51617;BME280;37697;52.588;13.394;2022-11-21T13:10:02;100076.84;;;-1.66;83.70
51617;BME280;37697;52.588;13.394;2022-11-21T13:15:25;100074.45;;;-1.77;83.07
51617;BME280;37697;52.588;13.394;2022-11-21T13:20:39;100069.05;;;-1.77;83.76
51617;BME280;37697;52.588;13.394;2022-11-21T13:25:43;100068.70;;;-1.69;84.02
51617;BME280;37697;52.588;13.394;2022-11-21T13:30:52;100070.50;;;-1.60;84.08
51617;BME280;37697;52.588;13.394;2022-11-21T13:35:57;100066.38;;;-1.63;83.89
51617;BME280;37697;52.588;13.394;2022-11-21T13:40:58;100064.55;;;-1.60;83.98
51617;BME280;37697;52.588;13.394;2022-11-21T13:52:01;100056.24;;;-1.70;83.20
51617;BME280;37697;52.588;13.394;2022-11-21T13:57:38;100052.48;;;-1.83;83.31
51617;BME280;37697;52.588;13.394;2022-11-21T14:08:17;100042.88;;;-1.77;83.90
51617;BME280;37697;52.588;13.394;2022-11-21T14:13:31;100042.98;;;-1.72;83.91
51617;BME280;37697;52.588;13.394;2022-11-21T14:18:34;100047.13;;;-1.66;83.81
51617;BME280;37697;52.588;13.394;2022-11-21T14:23:38;100051.83;;;-1.62;83.97
51617;BME280;37697;52.588;13.394;2022-11-21T14:28:40;100044.30;;;-1.60;83.87
51617;BME280;37697;52.588;13.394;2022-11-21T14:33:43;100027.52;;;-1.62;83.70
51617;BME280;37697;52.588;13.394;2022-11-21T14:38:50;100036.06;;;-1.67;83.11
51617;BME280;37697;52.588;13.394;2022-11-21T14:54:29;100015.53;;;-1.80;83.71
51617;BME280;37697;52.588;13.394;2022-11-21T14:59:47;99995.68;;;-1.88;83.54
51617;BME280;37697;52.588;13.394;2022-11-21T15:04:50;99995.68;;;-1.88;83.54
51617;BME280;37697;52.588;13.394;2022-11-21T15:09:52;100038.01;;;-1.77;83.61
51617;BME280;37697;52.588;13.394;2022-11-21T15:25:21;100041.52;;;-1.77;83.49
51617;BME280;37697;52.588;13.394;2022-11-21T15:30:34;100038.48;;;-1.80;83.43
51617;BME280;37697;52.588;13.394;2022-11-21T15:35:51;100041.78;;;-1.78;83.80
51617;BME280;37697;52.588;13.394;2022-11-21T15:41:05;100031.49;;;-1.79;83.69
51617;BME280;37697;52.588;13.394;2022-11-21T15:46:17;100026.94;;;-1.78;83.58
51617;BME280;37697;52.588;13.394;2022-11-21T15:51:24;100029.03;;;-1.80;83.77
51617;BME280;37697;52.588;13.394;2022-11-21T15:56:26;100025.22;;;-1.82;83.66
51617;BME280;37697;52.588;13.394;2022-11-21T16:01:28;100027.34;;;-1.84;83.86
51617;BME280;37697;52.588;13.394;2022-11-21T16:06:30;100024.30;;;-1.87;83.91
51617;BME280;37697;52.588;13.394;2022-11-21T16:11:34;100021.02;;;-1.89;83.78
51617;BME280;37697;52.588;13.394;2022-11-21T16:16:38;100028.55;;;-1.92;83.90
51617;BME280;37697;52.588;13.394;2022-11-21T16:21:41;100028.00;;;-1.91;83.95
51617;BME280;37697;52.588;13.394;2022-11-21T16:26:41;100030.20;;;-1.91;83.93
51617;BME280;37697;52.588;13.394;2022-11-21T16:31:42;100024.30;;;-1.87;84.14
51617;BME280;37697;52.588;13.394;2022-11-21T16:36:43;100006.59;;;-1.83;84.10
51617;BME280;37697;52.588;13.394;2022-11-21T16:41:43;100003.92;;;-1.81;84.19
51617;BME280;37697;52.588;13.394;2022-11-21T16:46:46;100004.27;;;-1.77;84.13
51617;BME280;37697;52.588;13.394;2022-11-21T16:51:48;100014.25;;;-1.78;84.11
51617;BME280;37697;52.588;13.394;2022-11-21T16:56:49;100019.92;;;-1.77;84.05
51617;BME280;37697;52.588;13.394;2022-11-21T17:01:50;100001.56;;;-1.77;84.11
51617;BME280;37697;52.588;13.394;2022-11-21T17:06:51;100008.31;;;-1.77;84.11
51617;BME280;37697;52.588;13.394;2022-11-21T17:11:55;100010.20;;;-1.78;84.02
51617;BME280;37697;52.588;13.394;2022-11-21T17:16:57;100015.53;;;-1.80;84.06
51617;BME280;37697;52.588;13.394;2022-11-21T17:21:58;100012.83;;;-1.80;84.04
51617;BME280;37697;52.588;13.394;2022-11-21T17:26:59;100016.07;;;-1.81;84.08
51617;BME280;37697;52.588;13.394;2022-11-21T17:32:01;100004.16;;;-1.82;84.00
51617;BME280;37697;52.588;13.394;2022-11-21T17:37:02;99974.45;;;-1.97;84.05
51617;BME280;37697;52.588;13.394;2022-11-21T17:42:03;99986.50;;;-1.87;83.99
51617;BME280;37697;52.588;13.394;2022-11-21T17:47:04;99987.01;;;-1.91;83.90
51617;BME280;37697;52.588;13.394;2022-11-21T17:52:05;99981.67;;;-2.00;83.70
51617;BME280;37697;52.588;13.394;2022-11-21T17:57:06;99990.73;;;-2.06;83.83
51617;BME280;37697;52.588;13.394;2022-11-21T18:02:07;99980.88;;;-2.12;83.76
51617;BME280;37697;52.588;13.394;2022-11-21T18:07:09;99981.07;;;-2.16;83.82
51617;BME280;37697;52.588;13.394;2022-11-21T18:12:10;99969.86;;;-2.22;83.74
51617;BME280;37697;52.588;13.394;2022-11-21T18:17:10;99964.09;;;-2.29;83.82
51617;BME280;37697;52.588;13.394;2022-11-21T18:22:11;99961.00;;;-2.35;83.80
51617;BME280;37697;52.588;13.394;2022-11-21T18:27:12;99964.63;;;-2.41;83.91
51617;BME280;37697;52.588;13.394;2022-11-21T18:32:12;99959.66;;;-2.46;84.06
51617;BME280;37697;52.588;13.394;2022-11-21T18:37:14;99957.73;;;-2.49;84.01
51617;BME280;37697;52.588;13.394;2022-11-21T18:42:14;99964.05;;;-2.55;84.01
51617;BME280;37697;52.588;13.394;2022-11-21T18:47:15;99959.43;;;-2.57;84.04
51617;BME280;37697;52.588;13.394;2022-11-21T18:52:16;99951.88;;;-2.57;84.14
51617;BME280;37697;52.588;13.394;2022-11-21T18:57:17;99944.56;;;-2.59;83.98
51617;BME280;37697;52.588;13.394;2022-11-21T19:02:18;99928.77;;;-2.65;83.79
51617;BME280;37697;52.588;13.394;2022-11-21T19:07:19;99922.91;;;-2.74;83.74
51617;BME280;37697;52.588;13.394;2022-11-21T19:12:19;99924.33;;;-2.83;83.80
51617;BME280;37697;52.588;13.394;2022-11-21T19:17:20;99916.36;;;-2.90;83.93
51617;BME280;37697;52.588;13.394;2022-11-21T19:22:21;99916.23;;;-2.95;83.98
51617;BME280;37697;52.588;13.394;2022-11-21T19:27:22;99912.73;;;-2.95;84.26
51617;BME280;37697;52.588;13.394;2022-11-21T19:32:24;99920.36;;;-2.92;84.30
51617;BME280;37697;52.588;13.394;2022-11-21T19:37:24;99910.04;;;-2.95;84.23
51617;BME280;37697;52.588;13.394;2022-11-21T19:42:25;99906.23;;;-2.97;84.37
51617;BME280;37697;52.588;13.394;2022-11-21T19:47:26;99892.17;;;-2.99;84.42
51617;BME280;37697;52.588;13.394;2022-11-21T19:52:27;99890.78;;;-3.01;84.44
51617;BME280;37697;52.588;13.394;2022-11-21T19:57:28;99861.84;;;-3.06;84.44
51617;BME280;37697;52.588;13.394;2022-11-21T20:02:30;99836.94;;;-3.11;84.39
51617;BME280;37697;52.588;13.394;2022-11-21T20:07:31;99840.63;;;-3.14;84.52
51617;BME280;37697;52.588;13.394;2022-11-21T20:12:35;99820.39;;;-3.17;84.50
51617;BME280;37697;52.588;13.394;2022-11-21T20:17:36;99826.81;;;-3.18;84.62
51617;BME280;37697;52.588;13.394;2022-11-21T20:22:37;99815.92;;;-3.23;84.48
51617;BME280;37697;52.588;13.394;2022-11-21T20:27:38;99817.77;;;-3.26;84.44
51617;BME280;37697;52.588;13.394;2022-11-21T20:32:38;99821.45;;;-3.30;84.39
51617;BME280;37697;52.588;13.394;2022-11-21T20:37:40;99821.68;;;-3.31;84.52
51617;BME280;37697;52.588;13.394;2022-11-21T20:42:41;99830.22;;;-3.34;84.48
51617;BME280;37697;52.588;13.394;2022-11-21T20:47:41;99841.87;;;-3.31;84.56
51617;BME280;37697;52.588;13.394;2022-11-21T20:52:42;99834.37;;;-3.29;84.55
51617;BME280;37697;52.588;13.394;2022-11-21T20:57:43;99824.19;;;-3.27;84.47
51617;BME280;37697;52.588;13.394;2022-11-21T21:02:44;99812.30;;;-3.29;84.29
51617;BME280;37697;52.588;13.394;2022-11-21T21:07:46;99819.56;;;-3.29;84.23
51617;BME280;37697;52.588;13.394;2022-11-21T21:12:46;99821.09;;;-3.33;83.94
51617;BME280;37697;52.588;13.394;2022-11-21T21:17:47;99819.63;;;-3.38;83.71
51617;BME280;37697;52.588;13.394;2022-11-21T21:22:48;99825.17;;;-3.43;83.63
51617;BME280;37697;52.588;13.394;2022-11-21T21:27:49;99836.66;;;-3.47;83.50
51617;BME280;37697;52.588;13.394;2022-11-21T21:32:50;99858.42;;;-3.49;83.54
51617;BME280;37697;52.588;13.394;2022-11-21T21:37:50;99863.73;;;-3.51;83.39
51617;BME280;37697;52.588;13.394;2022-11-21T21:42:51;99886.61;;;-3.51;83.64
51617;BME280;37697;52.588;13.394;2022-11-21T21:47:53;99883.47;;;-3.48;83.93
51617;BME280;37697;52.588;13.394;2022-11-21T21:52:54;99891.98;;;-3.42;84.20
51617;BME280;37697;52.588;13.394;2022-11-21T21:57:55;99908.13;;;-3.30;84.75
51617;BME280;37697;52.588;13.394;2022-11-21T22:02:55;99903.66;;;-3.15;85.12
51617;BME280;37697;52.588;13.394;2022-11-21T22:07:57;99897.67;;;-3.06;85.25
51617;BME280;37697;52.588;13.394;2022-11-21T22:12:57;99885.52;;;-2.96;85.37
51617;BME280;37697;52.588;13.394;2022-11-21T22:17:58;99869.73;;;-2.90;85.26
51617;BME280;37697;52.588;13.394;2022-11-21T22:22:59;99871.50;;;-2.84;85.28
51617;BME280;37697;52.588;13.394;2022-11-21T22:27:59;99869.89;;;-2.82;85.08
51617;BME280;37697;52.588;13.394;2022-11-21T22:33:00;99860.73;;;-2.84;84.88
51617;BME280;37697;52.588;13.394;2022-11-21T22:38:01;99856.34;;;-2.88;84.85
51617;BME280;37697;52.588;13.394;2022-11-21T22:43:02;99840.56;;;-2.93;84.89
51617;BME280;37697;52.588;13.394;2022-11-21T22:48:03;99832.13;;;-2.97;84.82
51617;BME280;37697;52.588;13.394;2022-11-21T22:53:05;99829.58;;;-3.03;84.86
51617;BME280;37697;52.588;13.394;2022-11-21T22:58:05;99825.42;;;-3.09;84.86
51617;BME280;37697;52.588;13.394;2022-11-21T23:03:06;99820.16;;;-3.15;84.94
51617;BME280;37697;52.588;13.394;2022-11-21T23:08:07;99829.51;;;-3.18;85.04
51617;BME280;37697;52.588;13.394;2022-11-21T23:13:07;99817.62;;;-3.19;85.15
51617;BME280;37697;52.588;13.394;2022-11-21T23:18:08;99815.45;;;-3.20;85.15
51617;BME280;37697;52.588;13.394;2022-11-21T23:23:09;99808.45;;;-3.21;85.19
51617;BME280;37697;52.588;13.394;2022-11-21T23:28:09;99811.42;;;-3.20;85.26
51617;BME280;37697;52.588;13.394;2022-11-21T23:33:10;99814.11;;;-3.20;85.23
51617;BME280;37697;52.588;13.394;2022-11-21T23:38:12;99814.34;;;-3.21;85.14
51617;BME280;37697;52.588;13.394;2022-11-21T23:43:15;99819.96;;;-3.23;85.05
51617;BME280;37697;52.588;13.394;2022-11-21T23:48:17;99819.61;;;-3.27;85.01
51617;BME280;37697;52.588;13.394;2022-11-21T23:53:18;99808.80;;;-3.29;84.88
51617;BME280;37697;52.588;13.394;2022-11-21T23:58:20;99812.79;;;-3.32;84.87
